createdAt,value
2024-03-02T00:00:47.979Z,100642.28
2024-03-02T00:01:50.144Z,100645.72
2024-03-02T00:02:52.489Z,100650.06
2024-03-02T00:03:54.757Z,100653.50
2024-03-02T00:04:57.103Z,100648.31
2024-03-02T00:05:59.242Z,100654.34
2024-03-02T00:07:01.333Z,100650.88
2024-03-02T00:08:06.429Z,100656.91
2024-03-02T00:09:10.503Z,100655.19
2024-03-02T00:10:15.678Z,100650.84
2024-03-02T00:11:18.059Z,100655.16
2024-03-02T00:12:21.748Z,100644.78
2024-03-02T00:13:24.359Z,100649.97
2024-03-02T00:14:26.671Z,100653.41
2024-03-02T00:15:53.763Z,100644.78
2024-03-02T00:16:57.681Z,100652.53
2024-03-02T00:18:00.294Z,100651.66
2024-03-02T00:19:07.423Z,100653.38
2024-03-02T00:20:11.167Z,100651.66
2024-03-02T00:21:16.155Z,100658.56
2024-03-02T00:22:18.272Z,100655.94
2024-03-02T00:23:21.748Z,100661.13
2024-03-02T00:24:34.280Z,100660.28
2024-03-02T00:25:40.491Z,100662.88
2024-03-02T00:26:46.197Z,100657.69
2024-03-02T00:27:51.246Z,100656.84
2024-03-02T00:28:58.580Z,100659.44
2024-03-02T00:30:02.871Z,100656.84
2024-03-02T00:31:06.459Z,100665.50
2024-03-02T00:32:17.737Z,100659.44
2024-03-02T00:33:21.419Z,100663.75
2024-03-02T00:34:24.042Z,100665.50
2024-03-02T00:35:26.094Z,100666.38
2024-03-02T00:36:28.677Z,100662.06
2024-03-02T00:37:31.181Z,100667.25
2024-03-02T00:38:34.186Z,100663.78
2024-03-02T00:39:36.949Z,100657.75
2024-03-02T00:40:39.085Z,100666.38
2024-03-02T00:41:45.818Z,100668.09
2024-03-02T00:42:48.047Z,100667.25
2024-03-02T00:43:56.761Z,100658.59
2024-03-02T00:44:59.452Z,100662.03
2024-03-02T00:46:01.952Z,100659.44
2024-03-02T00:47:04.370Z,100662.03
2024-03-02T00:48:06.985Z,100665.50
2024-03-02T00:49:14.795Z,100663.75
2024-03-02T00:50:23.559Z,100663.75
2024-03-02T00:51:34.176Z,100666.34
2024-03-02T00:52:37.150Z,100664.59
2024-03-02T00:53:39.471Z,100665.44
2024-03-02T00:54:41.483Z,100660.25
2024-03-02T00:55:48.636Z,100664.56
2024-03-02T00:56:51.431Z,100668.00
2024-03-02T00:57:53.617Z,100660.22
2024-03-02T00:58:55.710Z,100662.81
2024-03-02T00:59:58.076Z,100667.97
2024-03-02T01:01:00.108Z,100661.06
2024-03-02T01:02:02.807Z,100661.94
2024-03-02T01:03:05.297Z,100666.25
2024-03-02T01:04:07.496Z,100666.22
2024-03-02T01:05:09.498Z,100665.34
2024-03-02T01:06:11.704Z,100662.75
2024-03-02T01:07:13.646Z,100667.94
2024-03-02T01:08:16.146Z,100662.75
2024-03-02T01:09:19.596Z,100661.88
2024-03-02T01:10:21.791Z,100666.19
2024-03-02T01:11:24.320Z,100667.06
2024-03-02T01:12:26.861Z,100668.78
2024-03-02T01:13:28.960Z,100670.50
2024-03-02T01:14:31.065Z,100673.06
2024-03-02T01:15:34.427Z,100672.22
2024-03-02T01:16:36.532Z,100672.19
2024-03-02T01:17:38.534Z,100673.06
2024-03-02T01:18:40.977Z,100671.31
2024-03-02T01:19:43.472Z,100677.34
2024-03-02T01:20:45.827Z,100676.47
2024-03-02T01:21:47.936Z,100668.72
2024-03-02T01:22:50.060Z,100671.28
2024-03-02T01:23:52.004Z,100676.47
2024-03-02T01:24:54.482Z,100666.97
2024-03-02T01:25:56.888Z,100665.25
2024-03-02T01:26:59.146Z,100670.41
2024-03-02T01:28:01.288Z,100676.47
2024-03-02T01:29:03.539Z,100677.31
2024-03-02T01:30:06.365Z,100674.72
2024-03-02T01:31:08.806Z,100688.53
2024-03-02T01:32:10.759Z,100679.03
2024-03-02T01:33:13.062Z,100679.91
2024-03-02T01:34:15.198Z,100684.22
2024-03-02T01:35:17.341Z,100683.34
2024-03-02T01:36:19.840Z,100682.50
2024-03-02T01:37:22.077Z,100689.38
2024-03-02T01:38:24.131Z,100688.53
2024-03-02T01:39:26.248Z,100684.19
2024-03-02T01:40:28.652Z,100679.03
2024-03-02T01:41:30.916Z,100677.25
2024-03-02T01:42:32.894Z,100685.00
2024-03-02T01:43:36.392Z,100682.44
2024-03-02T01:44:39.456Z,100679.00
2024-03-02T01:45:41.820Z,100677.28
2024-03-02T01:46:44.025Z,100683.31
2024-03-02T01:47:46.145Z,100685.91
2024-03-02T01:48:49.114Z,100687.66
2024-03-02T01:49:52.044Z,100685.03
2024-03-02T01:50:54.202Z,100689.38
2024-03-02T01:51:56.253Z,100690.25
2024-03-02T01:52:59.030Z,100694.56
2024-03-02T01:54:01.136Z,100688.53
2024-03-02T01:55:03.302Z,100692.84
2024-03-02T01:56:06.017Z,100691.13
2024-03-02T01:57:08.173Z,100689.41
2024-03-02T01:58:10.654Z,100686.81
2024-03-02T01:59:14.342Z,100691.16
2024-03-02T02:00:17.194Z,100692.88
2024-03-02T02:01:19.477Z,100689.44
2024-03-02T02:02:21.918Z,100693.78
2024-03-02T02:03:23.959Z,100694.69
2024-03-02T02:04:29.129Z,100694.69
2024-03-02T02:05:31.401Z,100693.81
2024-03-02T02:06:34.480Z,100702.44
2024-03-02T02:07:36.917Z,100700.75
2024-03-02T02:08:39.220Z,100704.22
2024-03-02T02:09:44.617Z,100699.03
2024-03-02T02:10:46.774Z,100697.31
2024-03-02T02:11:49.007Z,100709.41
2024-03-02T02:12:51.311Z,100703.38
2024-03-02T02:13:53.325Z,100699.03
2024-03-02T02:14:55.659Z,100699.91
2024-03-02T02:16:06.468Z,100690.41
2024-03-02T02:17:08.902Z,100700.78
2024-03-02T02:18:11.168Z,100699.03
2024-03-02T02:19:13.193Z,100699.91
2024-03-02T02:20:15.268Z,100699.06
2024-03-02T02:21:17.394Z,100696.47
2024-03-02T02:22:19.498Z,100698.19
2024-03-02T02:23:21.804Z,100696.47
2024-03-02T02:24:23.913Z,100696.44
2024-03-02T02:25:26.400Z,100705.97
2024-03-02T02:26:28.385Z,100705.97
2024-03-02T02:27:32.073Z,100708.56
2024-03-02T02:28:34.023Z,100707.72
2024-03-02T02:29:36.265Z,100709.47
2024-03-02T02:30:38.354Z,100712.06
2024-03-02T02:31:42.324Z,100715.53
2024-03-02T02:32:44.220Z,100706.91
2024-03-02T02:33:46.406Z,100708.63
2024-03-02T02:34:53.231Z,100712.97
2024-03-02T02:35:55.182Z,100710.38
2024-03-02T02:36:57.536Z,100716.44
2024-03-02T02:38:02.553Z,100718.16
2024-03-02T02:39:06.639Z,100723.38
2024-03-02T02:40:10.290Z,100716.44
2024-03-02T02:41:12.297Z,100725.09
2024-03-02T02:42:14.357Z,100720.78
2024-03-02T02:43:16.590Z,100726.84
2024-03-02T02:44:18.686Z,100725.97
2024-03-02T02:45:20.987Z,100727.72
2024-03-02T02:46:23.141Z,100729.44
2024-03-02T02:47:25.388Z,100717.34
2024-03-02T02:48:27.403Z,100731.19
2024-03-02T02:49:29.559Z,100726.00
2024-03-02T02:50:31.526Z,100732.94
2024-03-02T02:51:33.811Z,100730.34
2024-03-02T02:52:37.899Z,100724.31
2024-03-02T02:53:41.910Z,100722.59
2024-03-02T02:54:43.936Z,100728.63
2024-03-02T02:55:46.161Z,100726.03
2024-03-02T02:56:48.206Z,100720.00
2024-03-02T02:57:50.345Z,100722.59
2024-03-02T02:58:52.740Z,100722.59
2024-03-02T02:59:54.874Z,100725.19
2024-03-02T03:00:58.078Z,100722.59
2024-03-02T03:02:00.515Z,100720.84
2024-03-02T03:03:02.423Z,100731.19
2024-03-02T03:04:04.787Z,100726.88
2024-03-02T03:05:07.612Z,100726.88
2024-03-02T03:06:09.676Z,100736.34
2024-03-02T03:07:11.642Z,100726.84
2024-03-02T03:08:13.766Z,100727.72
2024-03-02T03:09:15.825Z,100732.00
2024-03-02T03:10:18.673Z,100730.28
2024-03-02T03:11:20.849Z,100732.00
2024-03-02T03:12:22.979Z,100723.38
2024-03-02T03:13:25.013Z,100735.47
2024-03-02T03:14:27.244Z,100726.84
2024-03-02T03:15:29.249Z,100732.00
2024-03-02T03:16:31.349Z,100738.06
2024-03-02T03:17:33.651Z,100736.34
2024-03-02T03:18:35.820Z,100725.94
2024-03-02T03:19:40.002Z,100726.81
2024-03-02T03:20:42.177Z,100742.34
2024-03-02T03:21:45.325Z,100729.41
2024-03-02T03:22:47.449Z,100725.09
2024-03-02T03:23:49.564Z,100726.81
2024-03-02T03:24:51.786Z,100735.47
2024-03-02T03:25:53.786Z,100734.59
2024-03-02T03:26:55.958Z,100734.59
2024-03-02T03:27:58.660Z,100734.59
2024-03-02T03:29:00.942Z,100738.91
2024-03-02T03:30:03.957Z,100736.31
2024-03-02T03:31:06.795Z,100737.16
2024-03-02T03:32:09.727Z,100744.94
2024-03-02T03:33:12.072Z,100738.03
2024-03-02T03:34:17.102Z,100742.34
2024-03-02T03:35:19.898Z,100744.94
2024-03-02T03:36:22.022Z,100747.50
2024-03-02T03:37:25.284Z,100744.91
2024-03-02T03:38:27.319Z,100746.63
2024-03-02T03:39:32.270Z,100750.94
2024-03-02T03:40:34.354Z,100747.47
2024-03-02T03:41:36.838Z,100747.47
2024-03-02T03:42:40.172Z,100750.91
2024-03-02T03:43:42.548Z,100749.19
2024-03-02T03:44:44.559Z,100750.91
2024-03-02T03:45:46.888Z,100753.50
2024-03-02T03:46:48.843Z,100750.91
2024-03-02T03:47:51.065Z,100751.75
2024-03-02T03:48:53.346Z,100751.75
2024-03-02T03:49:55.486Z,100757.78
2024-03-02T03:50:58.322Z,100756.94
2024-03-02T03:52:00.619Z,100755.22
2024-03-02T03:53:02.631Z,100762.09
2024-03-02T03:54:04.701Z,100762.97
2024-03-02T03:55:07.353Z,100762.09
2024-03-02T03:56:09.857Z,100764.66
2024-03-02T03:57:11.919Z,100767.28
2024-03-02T03:58:14.862Z,100768.13
2024-03-02T03:59:16.831Z,100769.84
2024-03-02T04:00:19.124Z,100762.97
2024-03-02T04:01:23.589Z,100762.13
2024-03-02T04:02:26.099Z,100770.75
2024-03-02T04:03:28.099Z,100767.31
2024-03-02T04:04:30.407Z,100769.94
2024-03-02T04:05:32.447Z,100763.91
2024-03-02T04:06:34.573Z,100771.69
2024-03-02T04:07:44.577Z,100774.31
2024-03-02T04:08:47.101Z,100774.31
2024-03-02T04:09:49.277Z,100778.59
2024-03-02T04:10:51.489Z,100776.06
2024-03-02T04:11:53.520Z,100774.34
2024-03-02T04:12:56.184Z,100776.09
2024-03-02T04:13:59.142Z,100782.19
2024-03-02T04:15:02.870Z,100783.91
2024-03-02T04:16:06.278Z,100777.94
2024-03-02T04:17:08.565Z,100778.78
2024-03-02T04:18:10.739Z,100779.69
2024-03-02T04:19:13.418Z,100778.88
2024-03-02T04:20:15.661Z,100786.69
2024-03-02T04:21:17.832Z,100779.78
2024-03-02T04:22:25.078Z,100785.84
2024-03-02T04:23:28.225Z,100779.81
2024-03-02T04:24:30.179Z,100784.16
2024-03-02T04:25:32.254Z,100788.50
2024-03-02T04:26:34.339Z,100784.22
2024-03-02T04:27:37.038Z,100788.53
2024-03-02T04:28:39.228Z,100785.97
2024-03-02T04:29:41.379Z,100786.84
2024-03-02T04:30:43.516Z,100787.75
2024-03-02T04:31:45.848Z,100789.53
2024-03-02T04:32:49.116Z,100789.53
2024-03-02T04:33:51.299Z,100785.22
2024-03-02T04:34:53.321Z,100782.66
2024-03-02T04:35:55.477Z,100787.00
2024-03-02T04:36:57.618Z,100786.19
2024-03-02T04:37:59.954Z,100787.06
2024-03-02T04:39:02.036Z,100789.66
2024-03-02T04:40:04.570Z,100789.69
2024-03-02T04:41:09.595Z,100789.72
2024-03-02T04:42:11.883Z,100787.97
2024-03-02T04:43:17.710Z,100788.00
2024-03-02T04:44:20.196Z,100786.28
2024-03-02T04:45:22.448Z,100788.03
2024-03-02T04:46:24.524Z,100781.16
2024-03-02T04:47:26.589Z,100790.66
2024-03-02T04:48:29.102Z,100783.75
2024-03-02T04:49:31.685Z,100788.09
2024-03-02T04:50:33.797Z,100780.34
2024-03-02T04:51:35.930Z,100782.06
2024-03-02T04:52:38.256Z,100785.53
2024-03-02T04:53:40.251Z,100779.50
2024-03-02T04:55:08.458Z,100779.50
2024-03-02T04:56:29.022Z,100782.97
2024-03-02T04:57:31.343Z,100779.53
2024-03-02T04:58:33.602Z,100782.13
2024-03-02T04:59:35.700Z,100783.00
2024-03-02T05:00:37.832Z,100782.09
2024-03-02T05:01:40.046Z,100787.31
2024-03-02T05:02:42.076Z,100787.31
2024-03-02T05:03:44.385Z,100785.59
2024-03-02T05:04:46.662Z,100787.31
2024-03-02T05:05:49.093Z,100788.19
2024-03-02T05:06:54.347Z,100786.47
2024-03-02T05:07:56.559Z,100792.50
2024-03-02T05:08:58.609Z,100783.00
2024-03-02T05:10:01.188Z,100789.06
2024-03-02T05:11:23.428Z,100795.09
2024-03-02T05:12:43.896Z,100792.50
2024-03-02T05:13:46.087Z,100784.72
2024-03-02T05:14:48.135Z,100783.88
2024-03-02T05:15:50.653Z,100783.88
2024-03-02T05:16:53.139Z,100787.34
2024-03-02T05:17:55.343Z,100785.59
2024-03-02T05:18:57.484Z,100789.09
2024-03-02T05:19:59.872Z,100791.69
2024-03-02T05:21:02.029Z,100798.63
2024-03-02T05:22:04.542Z,100795.16
2024-03-02T05:23:06.808Z,100797.75
2024-03-02T05:24:08.869Z,100796.03
2024-03-02T05:25:11.872Z,100795.19
2024-03-02T05:26:14.195Z,100787.38
2024-03-02T05:27:16.421Z,100791.69
2024-03-02T05:28:18.855Z,100786.50
2024-03-02T05:29:21.767Z,100789.09
2024-03-02T05:30:23.913Z,100788.25
2024-03-02T05:31:26.176Z,100781.31
2024-03-02T05:32:28.619Z,100788.22
2024-03-02T05:33:32.790Z,100785.63
2024-03-02T05:34:37.262Z,100792.56
2024-03-02T05:35:39.538Z,100792.56
2024-03-02T05:36:41.554Z,100791.66
2024-03-02T05:37:43.729Z,100795.13
2024-03-02T05:38:45.757Z,100794.25
2024-03-02T05:39:47.872Z,100790.75
2024-03-02T05:40:50.192Z,100799.44
2024-03-02T05:41:52.629Z,100791.63
2024-03-02T05:42:54.728Z,100790.75
2024-03-02T05:43:56.939Z,100791.56
2024-03-02T05:44:58.862Z,100801.13
2024-03-02T05:46:01.036Z,100800.25
2024-03-02T05:47:04.502Z,100805.44
2024-03-02T05:48:08.939Z,100804.59
2024-03-02T05:49:11.533Z,100801.97
2024-03-02T05:50:13.805Z,100801.97
2024-03-02T05:51:15.896Z,100801.97
2024-03-02T05:52:18.104Z,100800.22
2024-03-02T05:53:20.164Z,100803.66
2024-03-02T05:54:22.297Z,100808.00
2024-03-02T05:55:24.301Z,100807.13
2024-03-02T05:56:26.431Z,100807.97
2024-03-02T05:58:00.865Z,100813.19
2024-03-02T05:59:15.216Z,100814.00
2024-03-02T06:00:18.735Z,100811.41
2024-03-02T06:01:21.729Z,100813.13
2024-03-02T06:02:23.922Z,100816.59
2024-03-02T06:03:26.196Z,100809.66
2024-03-02T06:04:28.140Z,100816.59
2024-03-02T06:05:30.414Z,100817.47
2024-03-02T06:06:34.877Z,100818.34
2024-03-02T06:07:37.309Z,100820.06
2024-03-02T06:08:39.708Z,100824.41
2024-03-02T06:09:42.532Z,100817.47
2024-03-02T06:10:44.883Z,100824.41
2024-03-02T06:11:47.242Z,100827.91
2024-03-02T06:12:49.396Z,100826.16
2024-03-02T06:13:51.598Z,100824.41
2024-03-02T06:14:53.675Z,100829.56
2024-03-02T06:15:55.971Z,100829.53
2024-03-02T06:16:58.080Z,100834.75
2024-03-02T06:18:00.333Z,100836.47
2024-03-02T06:19:03.146Z,100832.16
2024-03-02T06:20:06.099Z,100833.00
2024-03-02T06:21:08.280Z,100832.97
2024-03-02T06:22:10.946Z,100835.53
2024-03-02T06:23:12.921Z,100838.13
2024-03-02T06:24:15.223Z,100838.97
2024-03-02T06:25:17.183Z,100842.44
2024-03-02T06:26:23.799Z,100843.25
2024-03-02T06:27:27.802Z,100852.00
2024-03-02T06:28:30.199Z,100850.25
2024-03-02T06:29:35.157Z,100844.97
2024-03-02T06:30:37.444Z,100847.56
2024-03-02T06:31:39.461Z,100844.88
2024-03-02T06:32:41.725Z,100847.44
2024-03-02T06:33:43.932Z,100848.28
2024-03-02T06:34:46.059Z,100847.34
2024-03-02T06:35:48.145Z,100846.44
2024-03-02T06:36:50.487Z,100856.84
2024-03-02T06:37:52.557Z,100853.38
2024-03-02T06:38:54.924Z,100845.56
2024-03-02T06:39:57.154Z,100849.03
2024-03-02T06:40:59.403Z,100844.66
2024-03-02T06:42:01.778Z,100836.78
2024-03-02T06:43:04.131Z,100842.88
2024-03-02T06:44:07.777Z,100835.84
2024-03-02T06:45:09.892Z,100837.59
2024-03-02T06:46:15.894Z,100827.13
2024-03-02T06:47:18.091Z,100825.34
2024-03-02T06:48:24.432Z,100828.84
2024-03-02T06:49:27.200Z,100824.50
2024-03-02T06:50:29.899Z,100822.78
2024-03-02T06:51:32.067Z,100821.94
2024-03-02T06:52:34.153Z,100820.19
2024-03-02T06:53:36.408Z,100826.28
2024-03-02T06:54:38.503Z,100828.88
2024-03-02T06:55:40.839Z,100828.00
2024-03-02T06:56:42.822Z,100824.50
2024-03-02T06:57:44.952Z,100820.06
2024-03-02T06:58:47.021Z,100827.88
2024-03-02T06:59:51.552Z,100827.81
2024-03-02T07:00:54.269Z,100831.22
2024-03-02T07:01:56.864Z,100832.91
2024-03-02T07:02:59.666Z,100836.34
2024-03-02T07:04:02.042Z,100839.72
2024-03-02T07:05:05.153Z,100839.69
2024-03-02T07:06:07.390Z,100849.19
2024-03-02T07:07:09.512Z,100843.84
2024-03-02T07:08:11.786Z,100849.75
2024-03-02T07:09:13.937Z,100845.31
2024-03-02T07:10:16.061Z,100851.28
2024-03-02T07:11:18.329Z,100856.47
2024-03-02T07:12:20.536Z,100859.00
2024-03-02T07:13:22.535Z,100855.38
2024-03-02T07:14:44.757Z,100864.03
2024-03-02T07:15:46.730Z,100862.28
2024-03-02T07:16:48.916Z,100862.31
2024-03-02T07:17:51.183Z,100858.84
2024-03-02T07:18:53.619Z,100864.03
2024-03-02T07:19:55.742Z,100870.03
2024-03-02T07:21:02.402Z,100868.25
2024-03-02T07:22:07.844Z,100876.91
2024-03-02T07:23:10.517Z,100867.28
2024-03-02T07:24:14.742Z,100871.63
2024-03-02T07:27:27.206Z,100871.66
2024-03-02T07:28:29.574Z,100873.47
2024-03-02T07:29:32.175Z,100869.09
2024-03-02T07:30:34.980Z,100867.34
2024-03-02T07:31:37.191Z,100869.97
2024-03-02T07:32:39.524Z,100873.41
2024-03-02T07:33:41.791Z,100862.13
2024-03-02T07:34:43.908Z,100859.50
2024-03-02T07:35:46.025Z,100859.50
2024-03-02T07:36:48.162Z,100861.25
2024-03-02T07:37:50.373Z,100860.41
2024-03-02T07:38:52.555Z,100863.06
2024-03-02T07:39:54.878Z,100862.13
2024-03-02T07:40:57.432Z,100859.50
2024-03-02T07:41:59.609Z,100863.00
2024-03-02T07:43:01.918Z,100860.38
2024-03-02T07:44:04.102Z,100866.41
2024-03-02T07:45:06.935Z,100861.16
2024-03-02T07:46:09.223Z,100855.91
2024-03-02T07:47:11.219Z,100853.28
2024-03-02T07:48:13.856Z,100855.06
2024-03-02T07:49:16.077Z,100852.50
2024-03-02T07:50:18.533Z,100856.09
2024-03-02T07:51:20.536Z,100854.41
2024-03-02T07:52:22.857Z,100863.25
2024-03-02T07:53:24.998Z,100865.13
2024-03-02T07:54:27.175Z,100862.56
2024-03-02T07:55:29.260Z,100858.31
2024-03-02T07:56:31.699Z,100870.53
2024-03-02T07:57:33.851Z,100867.06
2024-03-02T07:58:36.794Z,100872.28
2024-03-02T07:59:38.912Z,100873.19
2024-03-02T08:00:41.692Z,100874.97
2024-03-02T08:01:44.028Z,100868.06
2024-03-02T08:02:46.299Z,100869.88
2024-03-02T08:03:52.303Z,100872.47
2024-03-02T08:04:54.807Z,100875.03
2024-03-02T08:05:56.957Z,100870.72
2024-03-02T08:06:59.351Z,100869.81
2024-03-02T08:08:01.584Z,100875.97
2024-03-02T08:09:06.039Z,100870.69
2024-03-02T08:10:08.836Z,100866.31
2024-03-02T08:11:11.101Z,100870.63
2024-03-02T08:12:13.115Z,100873.22
2024-03-02T08:13:15.337Z,100881.03
2024-03-02T08:14:17.583Z,100879.25
2024-03-02T08:15:19.654Z,100886.13
2024-03-02T08:16:23.498Z,100876.50
2024-03-02T08:17:25.923Z,100882.56
2024-03-02T08:18:28.047Z,100878.16
2024-03-02T08:19:30.820Z,100885.91
2024-03-02T08:20:32.924Z,100885.81
2024-03-02T08:21:36.708Z,100884.03
2024-03-02T08:22:39.227Z,100887.47
2024-03-02T08:23:44.721Z,100885.63
2024-03-02T08:24:47.298Z,100882.09
2024-03-02T08:25:49.500Z,100881.16
2024-03-02T08:26:51.585Z,100877.63
2024-03-02T08:27:53.689Z,100875.75
2024-03-02T08:28:55.833Z,100877.44
2024-03-02T08:29:58.112Z,100879.88
2024-03-02T08:31:00.448Z,100871.03
2024-03-02T08:32:02.697Z,100871.00
2024-03-02T08:33:05.174Z,100871.75
2024-03-02T08:34:07.344Z,100874.28
2024-03-02T08:35:09.635Z,100863.72
2024-03-02T08:36:12.257Z,100866.19
2024-03-02T08:37:14.529Z,100855.69
2024-03-02T08:38:16.653Z,100864.41
2024-03-02T08:39:20.921Z,100865.97
2024-03-02T08:40:23.237Z,100867.50
2024-03-02T08:41:25.435Z,100869.25
2024-03-02T08:42:27.875Z,100877.81
2024-03-02T08:43:29.894Z,100869.91
2024-03-02T08:44:32.138Z,100868.97
2024-03-02T08:45:36.269Z,100867.22
2024-03-02T08:46:38.773Z,100868.84
2024-03-02T08:47:40.966Z,100875.84
2024-03-02T08:48:43.234Z,100869.69
2024-03-02T08:49:45.265Z,100871.44
2024-03-02T08:50:47.544Z,100879.28
2024-03-02T08:51:56.285Z,100878.44
2024-03-02T08:52:58.788Z,100877.72
2024-03-02T08:54:01.032Z,100872.69
2024-03-02T08:55:03.414Z,100875.56
2024-03-02T08:56:06.700Z,100876.59
2024-03-02T08:57:08.903Z,100870.66
2024-03-02T08:58:11.038Z,100871.66
2024-03-02T08:59:13.145Z,100876.13
2024-03-02T09:00:15.489Z,100872.78
2024-03-02T09:01:18.928Z,100869.38
2024-03-02T09:02:21.051Z,100872.97
2024-03-02T09:03:23.175Z,100873.97
2024-03-02T09:04:27.110Z,100876.63
2024-03-02T09:05:29.992Z,100874.03
2024-03-02T09:06:32.130Z,100877.56
2024-03-02T09:07:34.320Z,100874.94
2024-03-02T09:08:37.633Z,100871.53
2024-03-02T09:09:40.349Z,100865.44
2024-03-02T09:10:42.596Z,100869.81
2024-03-02T09:11:44.817Z,100869.81
2024-03-02T09:12:46.823Z,100867.19
2024-03-02T09:13:49.055Z,100868.06
2024-03-02T09:14:51.066Z,100872.47
2024-03-02T09:15:53.132Z,100878.59
2024-03-02T09:16:55.421Z,100887.38
2024-03-02T09:17:57.714Z,100883.13
2024-03-02T09:18:59.849Z,100888.44
2024-03-02T09:20:02.189Z,100885.84
2024-03-02T09:21:04.424Z,100881.53
2024-03-02T09:22:07.276Z,100880.69
2024-03-02T09:23:09.897Z,100885.94
2024-03-02T09:24:13.249Z,100880.69
2024-03-02T09:25:17.511Z,100880.66
2024-03-02T09:26:22.042Z,100881.50
2024-03-02T09:27:24.091Z,100887.56
2024-03-02T09:28:26.193Z,100883.16
2024-03-02T09:29:28.364Z,100881.44
2024-03-02T09:30:30.496Z,100883.25
2024-03-02T09:31:32.439Z,100874.44
2024-03-02T09:32:34.804Z,100883.91
2024-03-02T09:33:36.914Z,100875.19
2024-03-02T09:34:39.036Z,100882.09
2024-03-02T09:35:41.182Z,100871.63
2024-03-02T09:36:43.890Z,100878.63
2024-03-02T09:37:45.967Z,100874.22
2024-03-02T09:38:48.246Z,100878.53
2024-03-02T09:39:50.251Z,100878.53
2024-03-02T09:40:52.375Z,100884.63
2024-03-02T09:41:55.066Z,100883.75
2024-03-02T09:42:58.447Z,100888.03
2024-03-02T09:44:01.134Z,100881.03
2024-03-02T09:45:03.669Z,100884.50
2024-03-02T09:46:06.288Z,100881.03
2024-03-02T09:47:09.564Z,100875.03
2024-03-02T09:48:11.819Z,100882.88
2024-03-02T09:49:14.032Z,100881.16
2024-03-02T09:50:16.237Z,100874.22
2024-03-02T09:51:21.037Z,100881.19
2024-03-02T09:52:24.694Z,100878.63
2024-03-02T09:53:30.890Z,100879.50
2024-03-02T09:54:33.081Z,100883.88
2024-03-02T09:55:35.310Z,100881.28
2024-03-02T09:56:37.417Z,100879.56
2024-03-02T09:57:41.430Z,100880.50
2024-03-02T09:58:45.343Z,100883.13
2024-03-02T09:59:47.547Z,100877.06
2024-03-02T10:00:50.831Z,100873.56
2024-03-02T10:02:03.948Z,100874.44
2024-03-02T10:03:06.708Z,100870.09
2024-03-02T10:04:09.783Z,100873.56
2024-03-02T10:05:13.317Z,100873.53
2024-03-02T10:06:26.209Z,100872.66
2024-03-02T10:07:28.652Z,100877.06
2024-03-02T10:08:44.924Z,100880.53
2024-03-02T10:09:47.817Z,100880.50
2024-03-02T10:10:50.095Z,100881.28
2024-03-02T10:11:52.210Z,100879.56
2024-03-02T10:13:06.666Z,100883.94
2024-03-02T10:14:09.745Z,100880.53
2024-03-02T10:15:11.806Z,100882.28
2024-03-02T10:16:14.142Z,100872.72
2024-03-02T10:17:19.158Z,100881.47
2024-03-02T10:18:30.610Z,100875.41
2024-03-02T10:19:34.430Z,100870.19
2024-03-02T10:20:37.680Z,100875.41
2024-03-02T10:21:41.950Z,100877.16
2024-03-02T10:22:44.052Z,100869.34
2024-03-02T10:23:46.131Z,100871.06
2024-03-02T10:24:50.301Z,100872.84
2024-03-02T10:25:58.517Z,100874.59
2024-03-02T10:27:01.048Z,100877.16
2024-03-02T10:28:03.231Z,100876.31
2024-03-02T10:29:05.377Z,100873.66
2024-03-02T10:30:08.234Z,100876.22
2024-03-02T10:31:11.156Z,100875.34
2024-03-02T10:32:13.659Z,100880.53
2024-03-02T10:33:15.967Z,100878.75
2024-03-02T10:34:17.979Z,100870.81
2024-03-02T10:35:21.665Z,100879.47
2024-03-02T10:36:24.105Z,100877.69
2024-03-02T10:37:26.223Z,100874.19
2024-03-02T10:38:29.015Z,100875.03
2024-03-02T10:39:32.797Z,100871.44
2024-03-02T10:40:35.061Z,100881.00
2024-03-02T10:41:38.849Z,100881.00
2024-03-02T10:42:43.269Z,100875.72
2024-03-02T10:43:46.257Z,100874.81
2024-03-02T10:44:50.369Z,100881.78
2024-03-02T10:45:54.181Z,100881.81
2024-03-02T10:46:57.490Z,100882.59
2024-03-02T10:48:02.043Z,100881.75
2024-03-02T10:49:08.589Z,100880.88
2024-03-02T10:50:11.880Z,100886.09
2024-03-02T10:51:14.289Z,100886.97
2024-03-02T10:52:16.434Z,100888.63
2024-03-02T10:53:18.641Z,100884.34
2024-03-02T10:54:27.124Z,100878.16
2024-03-02T10:55:29.750Z,100887.72
2024-03-02T10:56:40.440Z,100884.19
2024-03-02T10:57:55.343Z,100889.47
2024-03-02T10:59:18.697Z,100880.69
2024-03-02T11:00:26.063Z,100879.78
2024-03-02T11:01:30.625Z,100890.22
2024-03-02T11:02:35.536Z,100885.84
2024-03-02T11:03:40.500Z,100887.53
2024-03-02T11:04:43.638Z,100890.94
2024-03-02T11:05:47.245Z,100883.94
2024-03-02T11:06:52.894Z,100886.50
2024-03-02T11:08:04.229Z,100881.25
2024-03-02T11:09:13.083Z,100890.81
2024-03-02T11:10:16.198Z,100891.69
2024-03-02T11:11:26.777Z,100890.78
2024-03-02T11:12:33.188Z,100885.53
2024-03-02T11:13:38.530Z,100876.72
2024-03-02T11:14:47.541Z,100885.34
2024-03-02T11:15:51.579Z,100879.13
2024-03-02T11:16:55.379Z,100884.19
2024-03-02T11:17:59.112Z,100877.97
2024-03-02T11:19:01.777Z,100885.69
2024-03-02T11:20:05.900Z,100882.84
2024-03-02T11:21:08.686Z,100880.94
2024-03-02T11:22:11.652Z,100887.75
2024-03-02T11:23:13.680Z,100883.19
2024-03-02T11:24:37.690Z,100877.78
2024-03-02T11:25:41.114Z,100886.44
2024-03-02T11:26:43.232Z,100894.09
2024-03-02T11:27:49.316Z,100889.63
2024-03-02T11:28:52.000Z,100891.19
2024-03-02T11:29:54.005Z,100892.81
2024-03-02T11:30:56.404Z,100889.19
2024-03-02T11:32:00.753Z,100890.81
2024-03-02T11:33:12.065Z,100893.31
2024-03-02T11:34:35.519Z,100891.47
2024-03-02T11:35:49.743Z,100886.00
2024-03-02T11:36:52.578Z,100888.44
2024-03-02T11:37:54.786Z,100882.13
2024-03-02T11:38:57.548Z,100889.94
2024-03-02T11:39:59.784Z,100889.78
2024-03-02T11:41:10.261Z,100882.66
2024-03-02T11:42:15.525Z,100892.97
2024-03-02T11:43:17.928Z,100881.38
2024-03-02T11:44:20.612Z,100884.75
2024-03-02T11:45:29.179Z,100888.09
2024-03-02T11:46:31.431Z,100887.13
2024-03-02T11:47:36.656Z,100884.63
2024-03-02T11:48:41.172Z,100888.03
2024-03-02T11:49:47.057Z,100887.13
2024-03-02T11:50:51.656Z,100886.19
2024-03-02T11:52:03.101Z,100884.50
2024-03-02T11:53:07.866Z,100878.34
2024-03-02T11:54:11.092Z,100883.63
2024-03-02T11:55:14.326Z,100875.69
2024-03-02T11:56:18.357Z,100881.78
2024-03-02T11:57:24.730Z,100884.41
2024-03-02T11:58:28.949Z,100887.00
2024-03-02T11:59:31.560Z,100886.13
2024-03-02T12:00:33.693Z,100887.84
2024-03-02T12:01:36.557Z,100886.03
2024-03-02T12:02:40.138Z,100884.19
2024-03-02T12:03:42.463Z,100888.50
2024-03-02T12:04:44.885Z,100895.44
2024-03-02T12:05:50.773Z,100892.84